Tropical Cyclones
[Index]
Main Index Home Page Stock Weather Photos Extreme Storms Discussion Storm News and Storm Chasing Reports Tropical Cyclones / Hurricanes / Typhoons Weather Data and Links Wild Fires / Bushfires Weather Observation Techniques Weather Picture Catalogue Tornado Pictures and Reports Stock Video Footage and DVDs for sale
Season 1971-1972 Tropical Cyclone BELINDA Track Map
Season 1971-1972 Summaries: [BoM-AU] [JTWC-AU] [JTWC-SIO] [JTWC-SPAC] [JTWC-SH]
<<- Previous TC | JTWC 1971-1972 Season | Next TC ->>

click for intensity scale information  Lat/long Grid: Show Hide

 Date Labels: Show Hide

Joint Typhoon Warning Centre Cyclone Data

Name: BELINDA
Number: 796 / 7225

20 Mar 1972 00:00 UTC to 29 Mar 1972 00:00 UTC

    date/time    lat    long     hPa   cat  kts
1972-03-20 00   10.0   105.0                  35          
1972-03-20 06   10.7   104.4                  30          
1972-03-20 12   11.2   103.8                  25          
1972-03-20 18   11.5   103.3                  25          
1972-03-21 00   11.8   102.9                  20          
1972-03-21 06   12.6   102.6                  15          
1972-03-21 12   13.4   102.4                  15          
1972-03-21 18   13.7   102.2                  15          
1972-03-22 00   14.0   102.0                  15          
1972-03-22 06   14.2   101.1                  10          
1972-03-22 12   14.4   100.0                  05          
1972-03-22 18   14.7    99.2                  05          
1972-03-23 00   15.0    98.5                  10          
1972-03-23 06   15.5    97.9                  10          
1972-03-23 12   16.0    97.4                  05          
1972-03-23 18   16.4    96.8                  05          
1972-03-24 00   16.8    96.1                  05          
1972-03-24 06   17.3    95.2                  10          
1972-03-24 12   17.9    94.2                  15          
1972-03-24 18   18.5    93.3                  20          
1972-03-25 00   19.0    92.5                  25          
1972-03-25 06   19.2    91.8                  25          
1972-03-25 12   19.4    91.3                  30          
1972-03-25 18   19.6    90.8                  30          
1972-03-26 00   19.8    90.5                  30          
1972-03-26 06   20.1    90.5                  30          
1972-03-26 12   20.5    90.6                  30          
1972-03-26 18   20.8    90.8                  30          
1972-03-27 00   21.0    91.0                  30          
1972-03-27 06   21.2    91.0                  25          
1972-03-27 12   21.4    91.0                  25          
1972-03-27 18   21.6    91.0                  25          
1972-03-28 00   21.8    91.0                  25          
1972-03-28 06   22.1    90.7                  20          
1972-03-28 12   22.4    90.2                  20          
1972-03-28 18   22.7    90.0                  15          
1972-03-29 00   23.0    90.0                  15          
Winds are 1-min average.

Tropical cyclone tracks developed by Michael Bath using data from the Joint Typhoon Warning Centre Best Tracks and Google Maps.


[Australian Severe Weather index] [Copyright Notice] [Email Contacts] [Search This Site] [Privacy Policy]
Document: tropical_cyclone_belinda.htm Updated: 18 September 2016